Flight Track Log - Related Links

Times and Time Zones

All times are in EDT time to prevent confusion due to time zone crossing. See the N745CC flight status page for this flight to view local times or setup timezone preferences in your user account.

Time Position Orientation Groundspeed Altitude Reporting Facility
EDT Latitude Longitude Course Direction KTS MPH feet Rate Location/Type
Fri 03:36:50 PM 42.4667 -71.3167 246° West 158 182 1,000  Level KA90
Fri 03:37:38 PM 42.4500 -71.3667 246° West 179 206 2,400 1,785 Climbing KA90
Fri 03:39:28 PM 42.3922 -71.4928 238° Southwest 234 269 5,700 1,624 Climbing Boston Center
Fri 03:40:28 PM 42.3511 -71.5439 223° Southwest 247 284 7,000 1,650 Climbing Boston Center
Fri 03:41:28 PM 42.2869 -71.6150 219° Southwest 257 296 9,000 1,800 Climbing Boston Center
Fri 03:42:28 PM 42.2414 -71.6717 223° Southwest 257 296 10,600 1,700 Climbing Boston Center
Fri 03:43:28 PM 42.1794 -71.7286 214° Southwest 257 296 12,400 1,700 Climbing Boston Center
Fri 03:44:28 PM 42.1256 -71.7739 212° Southwest 257 296 14,000 1,700 Climbing Boston Center
Fri 03:45:28 PM 42.0592 -71.8278 211° Southwest 257 296 15,800 1,545 Climbing Boston Center
Fri 03:46:40 PM 42.0031 -71.8758 212° Southwest 257 296 17,400 1,682 Climbing Boston Center
Fri 03:47:40 PM 41.9283 -71.9378 212° Southwest 263 303 19,500 1,300 Climbing Boston Center
Fri 03:48:40 PM 41.8639 -71.9914 212° Southwest 263 303 20,000 250 Climbing Boston Center
Fri 03:49:40 PM 41.7892 -72.0503 210° Southwest 291 335 20,000  Level Boston Center
Fri 03:50:40 PM 41.7100 -72.1203 213° Southwest 323 372 20,000  Level Boston Center
Fri 03:51:40 PM 41.6289 -72.1844 211° Southwest 341 392 20,000  Level Boston Center
Fri 03:52:40 PM 41.5458 -72.2486 210° Southwest 341 392 20,000  Level Boston Center
Fri 03:53:40 PM 41.4625 -72.3128 210° Southwest 346 398 20,000  Level Boston Center
Fri 03:54:40 PM 41.4000 -72.3653 212° Southwest 346 398 20,000  Level Boston Center
Fri 03:55:40 PM 41.3000 -72.4456 211° Southwest 346 398 20,000  Level Boston Center
Fri 03:56:52 PM 41.1978 -72.5283 211° Southwest 352 405 20,000  Level Boston Center
Fri 03:57:52 PM 41.1164 -72.5972 213° Southwest 352 405 20,000 -300 Level Boston Center
Fri 03:58:52 PM 41.0247 -72.6683 210° Southwest 352 405 19,400 -1,000 Descending Boston Center
Fri 03:59:52 PM 40.9453 -72.7342 212° Southwest 345 397 18,000 -1,450 Descending Boston Center
Fri 04:00:52 PM 40.8661 -72.7969 211° Southwest 339 390 16,500 -1,450 Descending Boston Center
Fri 04:01:52 PM 40.7867 -72.8567 210° Southwest 339 390 15,100 -1,300 Descending Boston Center
Fri 04:02:52 PM 40.7072 -72.9192 211° Southwest 339 390 13,900 -600 Descending Boston Center
Fri 04:03:52 PM 40.6361 -72.9733 210° Southwest 325 374 13,900  Level Boston Center
Fri 04:04:22 PM 40.6053 -72.9989 212° Southwest 321 369 13,900 66 Level New York Center
Fri 04:05:23 PM 40.5375 -73.0542 212° Southwest 277 319 14,000 50 Climbing New York Center
Fri 04:06:21 PM 40.4722 -73.1011 209° Southwest 277 319 14,000  Level New York Center
Fri 04:07:22 PM 40.4150 -73.1481 212° Southwest 277 319 14,000  Level New York Center
Fri 04:08:23 PM 40.3408 -73.2056 211° Southwest 277 319 14,000 -344 Level New York Center
Fri 04:09:24 PM 40.2814 -73.2522 211° Southwest 277 319 13,300 -1,091 Descending New York Center
Fri 04:10:24 PM 40.2075 -73.3067 209° Southwest 277 319 11,800 -1,373 Descending New York Center
Fri 04:11:22 PM 40.1481 -73.3533 211° Southwest 277 319 10,600 -1,220 Descending New York Center
Fri 04:12:22 PM 40.0739 -73.4103 210° Southwest 277 319 9,400 -1,041 Descending New York Center
Fri 04:13:23 PM 40.0186 -73.4542 211° Southwest 277 319 8,500 -992 Descending New York Center
Fri 04:14:23 PM 39.9525 -73.5194 217° Southwest 277 319 7,400 -1,050 Descending New York Center
Fri 04:15:23 PM 39.9586 -73.6089 275° West 235 270 6,400 -1,017 Descending New York Center
Fri 04:16:21 PM 39.9753 -73.6989 284° West 235 270 5,400 -1,008 Descending New York Center
Fri 04:17:22 PM 39.9917 -73.7864 284° West 245 282 4,400 -689 Descending New York Center
Fri 04:18:23 PM 40.0083 -73.8739 284° West 250 288 4,000 -198 Descending New York Center
Fri 04:19:23 PM 40.0331 -73.9589 291° West 250 288 4,000  Level New York Center
Fri 04:20:24 PM 40.0581 -74.0333 294° West 250 288 4,000  Level New York Center
Fri 04:21:22 PM 40.0828 -74.1158 291° West 255 293 4,000  Level New York Center
Fri 04:22:23 PM 40.1136 -74.2097 293° West 255 293 4,000  Level New York Center
Fri 04:23:24 PM 40.1403 -74.2953 292° West 255 293 4,000  Level New York Center
Fri 04:24:22 PM 40.1628 -74.3725 291° West 255 293 4,000  Level New York Center
Fri 04:25:23 PM 40.1894 -74.4525 294° West 255 293 4,000  Level New York Center
Fri 04:26:23 PM 40.2078 -74.5325 287° West 233 268 4,000 -450 Level New York Center
Fri 04:27:23 PM 40.2225 -74.5931 288° West 205 236 3,100 -942 Descending New York Center
Fri 04:28:24 PM 40.2369 -74.6592 286° West 193 222 2,100 -661 Descending New York Center
Fri 04:29:21 PM 40.2536 -74.7225 289° West 188 216 1,800 -458 Descending New York Center
Fri 04:30:22 PM 40.2881 -74.7572 322° Northwest 175 201 1,200 -639 Descending New York Center
Fri 04:31:23 PM 40.2889 -74.7953 272° West 123 142 500 -393 Descending New York Center
Fri 04:32:24 PM 40.2897 -74.8308 272° West 123 142 400 1,780 Descending New York Center
Fri 04:33:21 PM 40.2925 -74.8664 276° West 123 142 4,000 1,831 Climbing New York Center
Fri 04:34:22 PM 40.2978 -74.8992 282° West 123 142 4,000  Level New York Center
Fri 04:35:22 PM 40.3006 -74.9347 276° West 123 142 4,000  Level New York Center
Fri 04:37:00 PM 40.2629 -74.8225 78° East  Level FlightAware Approximate
Fri 04:44:00 PM 40.2667 -74.8000 78° East  Level FlightAware Approximate
Fri 04:45:00 PM 40.2767 -74.8135 78° East  Level Estimated
Fri 04:46:00 PM 40.2767 -74.8135 78° East  Level Estimated
Fri 04:47:00 PM 40.2767 -74.8135 78° East  Level Estimated
Fri 04:48:00 PM 40.2767 -74.8135 78° East  Level Estimated
Fri 04:49:00 PM 40.2767 -74.8135 78° East  Level Estimated

Login

Don't have an account? Register now (free) for customized features, flight alerts, and more!